Time;durP1;ratioP1;P1;durP2;ratioP2;P2;SDS_P1;SDS_P2;PMS_P1;PMS_P2;Temp;Humidity;BMP_temperature;BMP_pressure;BME280_temperature;BME280_humidity;BME280_pressure;Samples;Min_cycle;Max_cycle;Signal;HPM_P1;HPM_P2
2021/01/16 00:00:07;;;;;;;19.13;13.10;;;2.30;89.60;;;;;;5033705;28;20013;-88
2021/01/16 00:02:36;;;;;;;15.77;11.68;;;2.30;89.50;;;;;;5017567;28;20029;-86
2021/01/16 00:05:23;;;;;;;17.77;12.35;;;2.30;89.60;;;;;;5033597;28;20025;-87
2021/01/16 00:10:54;;;;;;;19.10;12.73;;;2.30;89.60;;;;;;5026046;28;20018;-87
2021/01/16 00:13:28;;;;;;;;;;;2.30;89.60;;;;;;5033429;28;20017;-88
2021/01/16 00:18:46;;;;;;;19.20;13.20;;;2.30;89.60;;;;;;5033641;28;20310;-87
2021/01/16 00:21:20;;;;;;;19.70;13.50;;;2.30;89.70;;;;;;5032391;28;20036;-88
2021/01/16 00:24:04;;;;;;;19.42;12.80;;;2.30;89.70;;;;;;5018580;28;20027;-90
2021/01/16 00:26:39;;;;;;;17.70;12.43;;;2.30;89.70;;;;;;5020894;28;20055;-88
2021/01/16 00:29:15;;;;;;;;;;;;;;;;;;;;;
2021/01/16 00:32:10;;;;;;;20.65;12.88;;;2.30;89.70;;;;;;5037674;28;20022;-87
2021/01/16 00:34:43;;;;;;;17.75;12.77;;;2.30;89.80;;;;;;5039164;28;20156;-87
2021/01/16 00:37:27;;;;;;;20.70;13.48;;;2.30;89.80;;;;;;5020937;28;20053;-88
2021/01/16 00:40:18;;;;;;;19.55;12.77;;;2.30;89.80;;;;;;5019944;28;20116;-86
2021/01/16 00:42:54;;;;;;;20.45;12.13;;;2.30;89.70;;;;;;5019086;28;20056;-86
2021/01/16 00:45:23;;;;;;;20.08;13.18;;;2.30;89.60;;;;;;5035967;28;20080;-89
2021/01/16 00:47:58;;;;;;;19.17;12.82;;;2.30;89.60;;;;;;5035657;28;20013;-87
2021/01/16 00:50:43;;;;;;;18.05;11.90;;;2.30;89.60;;;;;;5035939;28;20031;-88
2021/01/16 00:53:36;;;;;;;;;;;;;;;;;;;;;
2021/01/16 00:56:15;;;;;;;18.73;12.38;;;2.30;89.60;;;;;;5040376;28;20029;-87
2021/01/16 00:58:49;;;;;;;17.98;11.90;;;2.30;89.60;;;;;;5023010;28;20033;-87
2021/01/16 01:01:34;;;;;;;16.23;11.90;;;2.30;89.60;;;;;;5021912;28;20439;-88
2021/01/16 01:07:37;;;;;;;17.10;11.25;;;2.30;89.50;;;;;;5014449;28;20468;-87
2021/01/16 01:12:51;;;;;;;18.65;12.52;;;2.30;89.40;;;;;;5899836;23;20680;-87
2021/01/16 01:15:32;;;;;;;19.83;12.23;;;2.30;89.40;;;;;;4942890;28;20049;-87
2021/01/16 01:18:08;;;;;;;18.83;12.05;;;2.30;89.30;;;;;;4943342;28;20039;-86
2021/01/16 01:20:34;;;;;;;17.00;11.82;;;2.30;89.30;;;;;;4942234;28;20390;-88
2021/01/16 01:23:05;;;;;;;15.85;11.05;;;2.30;89.20;;;;;;4959055;28;20458;-85
2021/01/16 01:25:44;;;;;;;17.83;11.45;;;2.30;89.20;;;;;;4958450;28;20313;-86
2021/01/16 01:28:48;;;;;;;17.38;11.38;;;2.30;89.10;;;;;;4972002;28;20038;-90
2021/01/16 01:31:36;;;;;;;16.67;11.35;;;2.20;89.00;;;;;;4940577;29;20031;-87
2021/01/16 01:34:08;;;;;;;17.05;11.40;;;2.30;89.10;;;;;;4956869;29;20430;-88
2021/01/16 01:36:46;;;;;;;17.25;11.20;;;2.20;89.00;;;;;;4953450;29;20027;-88
2021/01/16 01:39:17;;;;;;;16.92;11.13;;;2.20;89.00;;;;;;4955677;28;20082;-88
2021/01/16 01:41:57;;;;;;;15.93;10.98;;;2.20;88.90;;;;;;4943868;28;20077;-87
2021/01/16 01:44:36;;;;;;;16.40;11.32;;;2.20;89.00;;;;;;4960199;28;20050;-88
2021/01/16 01:57:04;;;;;;;;;;;;;;;;;;;;;
2021/01/16 01:59:46;;;;;;;15.27;9.68;;;2.30;88.80;;;;;;4960535;28;20041;-88
2021/01/16 02:02:21;;;;;;;15.07;10.07;;;2.20;88.70;;;;;;4958990;28;20037;-88
2021/01/16 02:05:09;;;;;;;;;;;;;;;;;;;;;
2021/01/16 02:07:44;;;;;;;14.38;9.65;;;2.30;88.50;;;;;;4964650;28;20385;-88
2021/01/16 02:10:22;;;;;;;14.43;10.25;;;2.30;88.40;;;;;;4959175;28;20482;-86
2021/01/16 02:13:03;;;;;;;15.27;9.82;;;2.20;88.40;;;;;;4958499;28;20538;-89
2021/01/16 02:15:58;;;;;;;16.20;10.73;;;2.30;88.50;;;;;;4951847;29;20039;-89
2021/01/16 02:18:51;;;;;;;13.98;9.93;;;2.20;88.40;;;;;;4929020;29;20036;-87
2021/01/16 02:21:30;;;;;;;13.70;9.63;;;2.20;88.40;;;;;;4936289;29;20031;-88
2021/01/16 02:24:13;;;;;;;12.63;9.18;;;2.20;88.40;;;;;;4950132;29;20471;-85
2021/01/16 02:26:59;;;;;;;14.95;10.20;;;2.30;88.40;;;;;;4951079;29;20024;-88
2021/01/16 02:29:37;;;;;;;14.40;10.07;;;2.20;88.30;;;;;;4935397;29;20515;-88
2021/01/16 02:32:07;;;;;;;13.65;9.85;;;2.30;88.20;;;;;;4924744;28;20038;-88
2021/01/16 02:35:12;;;;;;;14.45;9.70;;;2.30;88.80;;;;;;4957267;28;20030;-88
2021/01/16 02:38:19;;;;;;;14.63;9.55;;;2.20;88.10;;;;;;4970082;28;20462;-88
2021/01/16 02:41:02;;;;;;;14.63;9.60;;;2.30;88.00;;;;;;4965963;28;20035;-87
2021/01/16 02:43:32;;;;;;;14.35;10.00;;;2.30;87.80;;;;;;4956614;28;20065;-88
2021/01/16 02:46:28;;;;;;;15.65;10.48;;;2.30;87.70;;;;;;4938547;28;20042;-88
2021/01/16 02:49:41;;;;;;;;;;;;;;;;;;;;;
2021/01/16 02:52:30;;;;;;;13.88;9.43;;;2.30;87.60;;;;;;4975019;28;20065;-88
2021/01/16 02:55:12;;;;;;;;;;;;;;;;;;;;;
2021/01/16 02:57:56;;;;;;;14.57;10.02;;;2.20;87.70;;;;;;4973632;28;20034;-88
2021/01/16 03:00:22;;;;;;;15.73;10.70;;;2.20;87.70;;;;;;4957767;28;20035;-86
2021/01/16 03:02:53;;;;;;;14.52;10.18;;;2.30;87.70;;;;;;4956625;28;20363;-88
2021/01/16 03:05:27;;;;;;;13.50;10.15;;;2.30;87.70;;;;;;4949328;28;20482;-87
2021/01/16 03:08:12;;;;;;;16.63;10.90;;;2.20;87.60;;;;;;4955343;28;20433;-87
2021/01/16 03:10:52;;;;;;;20.92;11.68;;;2.30;87.50;;;;;;4953110;29;20255;-88
2021/01/16 03:13:36;;;;;;;15.80;10.68;;;2.30;87.50;;;;;;4937090;29;20422;-89
2021/01/16 03:16:23;;;;;;;16.58;11.77;;;2.30;87.40;;;;;;4947908;28;20046;-89
2021/01/16 03:18:54;;;;;;;15.50;10.40;;;2.30;87.30;;;;;;4954993;28;20022;-88
2021/01/16 03:21:23;;;;;;;15.82;10.02;;;2.20;87.30;;;;;;4962025;28;20035;-87
2021/01/16 03:23:59;;;;;;;15.75;11.18;;;2.30;87.30;;;;;;4955728;28;20565;-87
2021/01/16 03:26:46;;;;;;;16.02;10.88;;;2.20;87.20;;;;;;4955360;28;20478;-88
2021/01/16 03:29:16;;;;;;;16.83;11.02;;;2.30;87.30;;;;;;4971746;28;20058;-86
2021/01/16 03:32:14;;;;;;;;;;;;;;;;;;;;;
2021/01/16 03:34:47;;;;;;;17.55;11.25;;;2.30;87.30;;;;;;4972276;28;20031;-89
2021/01/16 03:37:19;;;;;;;17.92;12.27;;;2.30;87.30;;;;;;4955397;28;20186;-87
2021/01/16 03:39:55;;;;;;;;;;;;;;;;;;;;;
2021/01/16 03:42:29;;;;;;;17.27;12.02;;;2.30;87.20;;;;;;4972016;28;20354;-86
2021/01/16 03:44:59;;;;;;;17.45;11.15;;;2.20;87.00;;;;;;4972595;28;20027;-86
2021/01/16 03:47:35;;;;;;;16.88;11.55;;;2.20;86.90;;;;;;4955218;28;20376;-89
2021/01/16 03:50:07;;;;;;;18.95;12.02;;;2.20;87.10;;;;;;4953023;28;20424;-88
2021/01/16 03:52:35;;;;;;;17.75;11.15;;;2.20;87.10;;;;;;4957407;28;20035;-89
2021/01/16 03:55:04;;;;;;;17.13;11.77;;;2.20;87.20;;;;;;4971204;28;20038;-87
2021/01/16 03:57:35;;;;;;;16.90;10.93;;;2.20;87.30;;;;;;4972131;28;20026;-90
2021/01/16 04:00:21;;;;;;;16.67;11.32;;;2.30;87.30;;;;;;4958416;28;20467;-87
2021/01/16 04:03:12;;;;;;;17.10;10.88;;;2.20;87.20;;;;;;4959392;28;21005;-87
2021/01/16 04:05:38;;;;;;;18.88;11.30;;;2.20;87.20;;;;;;4958454;28;20480;-88
2021/01/16 04:08:20;;;;;;;18.75;11.35;;;2.30;87.30;;;;;;4987793;28;20522;-87
2021/01/16 04:11:07;;;;;;;18.52;11.85;;;2.20;87.20;;;;;;4975408;28;20035;-89
2021/01/16 04:13:42;;;;;;;16.95;11.75;;;2.30;87.20;;;;;;4991440;28;20042;-87
2021/01/16 04:16:15;;;;;;;16.10;10.60;;;2.30;87.10;;;;;;4978847;28;20041;-89
2021/01/16 04:18:49;;;;;;;16.65;10.80;;;2.20;87.10;;;;;;4977837;28;20470;-87
2021/01/16 04:21:25;;;;;;;16.45;10.85;;;2.20;87.60;;;;;;4956673;29;20047;-86
2021/01/16 04:24:04;;;;;;;17.75;11.13;;;2.20;86.90;;;;;;4974003;28;20031;-85
2021/01/16 04:26:40;;;;;;;16.13;10.57;;;2.20;86.90;;;;;;4951020;29;20471;-86
2021/01/16 04:29:24;;;;;;;16.10;10.40;;;2.20;87.00;;;;;;4976906;28;20466;-87
2021/01/16 04:32:06;;;;;;;;;;;;;;;;;;;;;
2021/01/16 04:34:34;;;;;;;16.60;11.18;;;2.20;87.10;;;;;;4976242;28;20051;-89
2021/01/16 04:37:08;;;;;;;15.57;10.13;;;2.20;87.10;;;;;;4976228;28;20437;-86
2021/01/16 04:39:44;;;;;;;17.08;11.32;;;2.20;87.10;;;;;;4957177;28;20034;-90
2021/01/16 04:42:20;;;;;;;15.43;11.25;;;2.20;87.10;;;;;;4973710;28;20043;-88
2021/01/16 04:45:08;;;;;;;15.82;11.02;;;2.20;87.10;;;;;;4953906;28;20027;-87
2021/01/16 04:47:43;;;;;;;17.70;11.88;;;2.20;87.20;;;;;;4976106;28;20034;-87
2021/01/16 04:50:18;;;;;;;15.90;11.02;;;2.20;87.20;;;;;;4975937;28;20474;-86
2021/01/16 04:52:50;;;;;;;16.92;11.55;;;2.20;87.20;;;;;;4950725;29;20031;-86
2021/01/16 04:55:39;;;;;;;17.13;12.55;;;2.20;87.20;;;;;;4943607;28;20561;-88
2021/01/16 04:58:16;;;;;;;16.40;11.15;;;2.20;87.30;;;;;;4975436;28;20114;-87
2021/01/16 05:00:45;;;;;;;15.95;11.45;;;2.20;87.40;;;;;;4974824;28;20026;-88
2021/01/16 05:03:34;;;;;;;18.10;11.65;;;2.20;87.50;;;;;;4958757;28;20122;-85
2021/01/16 05:06:19;;;;;;;16.73;11.65;;;2.20;87.40;;;;;;4975168;28;20458;-87
2021/01/16 05:08:58;;;;;;;;;;;;;;;;;;;;;
2021/01/16 05:11:29;;;;;;;18.10;11.15;;;2.20;87.40;;;;;;4964905;28;20035;-87
2021/01/16 05:14:33;;;;;;;16.05;11.25;;;2.20;87.40;;;;;;4977144;28;20053;-86
2021/01/16 05:17:16;;;;;;;;;;;;;;;;;;;;;
2021/01/16 05:20:02;;;;;;;15.93;11.23;;;2.20;87.30;;;;;;4980772;28;20038;-88
2021/01/16 05:22:33;;;;;;;16.48;11.35;;;2.20;87.30;;;;;;4978265;28;20114;-85
2021/01/16 05:25:14;;;;;;;;;;;;;;;;;;;;;
2021/01/16 05:27:59;;;;;;;15.95;10.63;;;2.20;87.20;;;;;;4994175;28;20017;-86
2021/01/16 05:30:36;;;;;;;17.58;11.23;;;2.20;87.20;;;;;;4978350;28;20023;-88
2021/01/16 05:33:21;;;;;;;;;;;;;;;;;;;;;
2021/01/16 05:35:56;;;;;;;17.95;11.98;;;2.20;87.30;;;;;;4995462;28;20037;-89
2021/01/16 05:38:53;;;;;;;16.23;10.95;;;2.20;87.40;;;;;;4959977;28;20054;-86
2021/01/16 05:41:28;;;;;;;15.95;11.15;;;2.20;87.40;;;;;;4991434;28;20031;-87
2021/01/16 05:44:17;;;;;;;19.15;11.70;;;2.20;87.40;;;;;;4970873;28;20532;-86
2021/01/16 05:46:52;;;;;;;18.75;11.60;;;2.20;87.40;;;;;;4994444;28;20037;-85
2021/01/16 05:49:18;;;;;;;16.25;11.57;;;2.20;87.50;;;;;;4985909;28;20034;-87
2021/01/16 05:52:10;;;;;;;16.98;11.85;;;2.20;87.50;;;;;;4977846;28;20385;-86
2021/01/16 05:54:58;;;;;;;;;;;;;;;;;;;;;
2021/01/16 05:57:25;;;;;;;17.10;11.48;;;2.20;87.50;;;;;;4979872;28;20027;-87
2021/01/16 06:00:12;;;;;;;16.88;10.95;;;2.20;87.50;;;;;;4975962;28;20037;-86
2021/01/16 06:02:42;;;;;;;16.95;12.05;;;2.20;87.50;;;;;;4976711;28;20030;-87
2021/01/16 06:05:11;;;;;;;19.15;11.98;;;2.20;87.40;;;;;;4976581;28;20023;-86
2021/01/16 06:07:48;;;;;;;;;;;;;;;;;;;;;
2021/01/16 06:10:35;;;;;;;18.98;11.63;;;2.20;88.00;;;;;;4995047;28;20042;-88
2021/01/16 06:13:27;;;;;;;15.35;11.32;;;2.20;87.40;;;;;;4986286;28;20034;-86
2021/01/16 06:16:02;;;;;;;18.33;12.02;;;2.20;87.30;;;;;;4995172;28;20466;-87
2021/01/16 06:22:12;;;;;;;18.20;12.05;;;2.20;87.30;;;;;;4974508;28;20037;-87
2021/01/16 06:25:08;;;;;;;16.63;12.13;;;2.20;87.30;;;;;;4977533;28;20022;-85
2021/01/16 06:27:48;;;;;;;;;;;;;;;;;;;;;
2021/01/16 06:30:29;;;;;;;16.88;11.88;;;2.20;87.30;;;;;;4960618;28;20027;-88
2021/01/16 06:33:00;;;;;;;19.13;12.40;;;2.20;87.40;;;;;;4976327;28;20023;-88
2021/01/16 06:35:31;;;;;;;19.15;12.15;;;2.20;87.50;;;;;;4992276;28;20105;-87
2021/01/16 06:38:17;;;;;;;17.33;11.32;;;2.20;87.50;;;;;;4975269;28;20070;-88
2021/01/16 06:41:03;;;;;;;;;;;;;;;;;;;;;
2021/01/16 06:43:47;;;;;;;17.60;11.43;;;2.20;87.60;;;;;;4975300;28;20038;-87
2021/01/16 06:46:34;;;;;;;19.02;12.52;;;2.20;87.70;;;;;;4957994;28;20038;-87
2021/01/16 06:49:12;;;;;;;17.38;11.07;;;2.20;87.60;;;;;;4972058;28;20392;-86
2021/01/16 06:51:57;;;;;;;20.20;11.02;;;2.20;87.60;;;;;;4990951;28;20482;-87
2021/01/16 06:54:25;;;;;;;18.00;11.63;;;2.20;87.60;;;;;;4975435;28;20034;-86
2021/01/16 06:57:15;;;;;;;17.80;12.07;;;2.20;87.70;;;;;;4977069;28;20034;-86
2021/01/16 06:59:58;;;;;;;;;;;;;;;;;;;;;
2021/01/16 07:02:37;;;;;;;17.05;11.57;;;2.20;87.60;;;;;;4992811;28;20035;-87
2021/01/16 07:05:28;;;;;;;;;;;;;;;;;;;;;
2021/01/16 07:08:07;;;;;;;16.83;11.88;;;2.20;87.60;;;;;;4983665;28;20481;-88
2021/01/16 07:10:43;;;;;;;16.88;11.73;;;2.20;87.60;;;;;;4988566;28;20113;-86
2021/01/16 07:13:12;;;;;;;17.73;12.07;;;2.20;87.60;;;;;;4973400;28;20746;-86
2021/01/16 07:15:55;;;;;;;17.05;11.75;;;2.20;87.60;;;;;;4959050;28;20512;-87
2021/01/16 07:18:29;;;;;;;17.75;12.32;;;2.20;87.60;;;;;;4958173;28;20500;-86
2021/01/16 07:20:57;;;;;;;17.92;12.07;;;2.20;87.60;;;;;;4972469;28;20027;-87
2021/01/16 07:23:43;;;;;;;;;;;;;;;;;;;;;
2021/01/16 07:26:12;;;;;;;19.63;12.15;;;2.20;87.50;;;;;;4973602;28;20412;-87
2021/01/16 07:28:44;;;;;;;16.95;12.18;;;2.20;87.60;;;;;;4973296;28;20082;-87
2021/01/16 07:31:31;;;;;;;14.52;10.73;;;2.20;87.50;;;;;;4972322;28;20022;-85
2021/01/16 07:34:09;;;;;;;15.98;11.40;;;2.20;87.60;;;;;;4961002;28;20398;-87
2021/01/16 07:36:37;;;;;;;20.70;12.13;;;2.20;87.60;;;;;;4992848;28;20027;-88
2021/01/16 07:39:14;;;;;;;19.48;12.70;;;2.20;87.60;;;;;;4978221;28;20089;-85
2021/01/16 07:45:22;;;;;;;;;;;;;;;;;;;;;
2021/01/16 07:51:41;;;;;;;17.52;11.25;;;2.20;87.50;;;;;;4972050;28;20078;-94
2021/01/16 08:05:22;;;;;;;;;;;;;;;;;;;;;
2021/01/16 08:19:28;;;;;;;;;;;;;;;;;;;;;
2021/01/16 08:40:22;;;;;;;18.77;12.30;;;2.20;87.10;;;;;;4869966;29;20062;-92
2021/01/16 08:50:19;;;;;;;;;;;;;;;;;;;;;
2021/01/16 09:04:02;;;;;;;;;;;;;;;;;;;;;
2021/01/16 09:21:25;;;;;;;;;;;;;;;;;;;;;
2021/01/16 09:28:26;;;;;;;;;;;;;;;;;;;;;
2021/01/16 09:39:30;;;;;;;;;;;;;;;;;;;;;
2021/01/16 09:46:26;;;;;;;18.42;11.90;;;2.60;85.30;;;;;;4694113;30;20165;-91
2021/01/16 09:49:31;;;;;;;16.50;12.00;;;2.50;85.00;;;;;;4697039;30;20515;-92
2021/01/16 10:07:45;;;;;;;;;;;;;;;;;;;;;
2021/01/16 10:25:35;;;;;;;;;;;;;;;;;;;;;
2021/01/16 11:01:03;;;;;;;21.55;12.98;;;2.80;82.80;;;;;;4756162;30;20120;-92
2021/01/16 11:11:17;;;;;;;;;;;;;;;;;;;;;
2021/01/16 11:22:03;;;;;;;17.58;12.02;;;2.90;82.10;;;;;;4836756;29;20054;-90
2021/01/16 11:24:45;;;;;;;;;;;;;;;;;;;;;
2021/01/16 11:38:33;;;;;;;17.92;11.10;;;3.00;81.80;;;;;;4796505;29;20037;-89
2021/01/16 11:41:59;;;;;;;;;;;;;;;;;;;;;
2021/01/16 11:59:11;;;;;;;14.82;10.25;;;3.00;81.50;;;;;;6049830;23;20135;-91
2021/01/16 12:02:48;;;;;;;;;;;;;;;;;;;;;
2021/01/16 12:06:07;;;;;;;;;;;;;;;;;;;;;
2021/01/16 12:20:21;;;;;;;;;;;;;;;;;;;;;
2021/01/16 12:42:27;;;;;;;;;;;;;;;;;;;;;
2021/01/16 12:52:38;;;;;;;;;;;;;;;;;;;;;
2021/01/16 12:59:42;;;;;;;;;;;;;;;;;;;;;
2021/01/16 13:03:04;;;;;;;;;;;;;;;;;;;;;
2021/01/16 13:17:15;;;;;;;;;;;;;;;;;;;;;
2021/01/16 13:19:59;;;;;;;;;;;;;;;;;;;;;
2021/01/16 13:23:59;;;;;;;;;;;;;;;;;;;;;
2021/01/16 13:30:23;;;;;;;;;;;;;;;;;;;;;
2021/01/16 13:33:35;;;;;;;10.75;7.00;;;3.00;78.30;;;;;;6164444;23;20080;-88
2021/01/16 13:44:25;;;;;;;10.75;7.40;;;2.90;77.60;;;;;;5975123;23;20091;-92
2021/01/16 13:48:06;;;;;;;;;;;;;;;;;;;;;
2021/01/16 13:55:01;;;;;;;;;;;;;;;;;;;;;
2021/01/16 16:26:04;;;;;;;17.15;12.02;;;2.10;78.60;;;;;;6232775;22;20035;-91
2021/01/16 16:29:04;;;;;;;16.17;11.13;;;2.10;79.20;;;;;;6279515;22;19999;-89
2021/01/16 16:32:00;;;;;;;;;;;;;;;;;;;;;
2021/01/16 16:35:22;;;;;;;;;;;;;;;;;;;;;
2021/01/16 16:38:09;;;;;;;18.35;12.05;;;2.00;80.40;;;;;;6281352;22;20042;-93
2021/01/16 16:48:33;;;;;;;18.73;11.98;;;1.90;81.30;;;;;;6179958;22;20016;-94
2021/01/16 16:55:00;;;;;;;;;;;;;;;;;;;;;
2021/01/16 16:57:30;;;;;;;18.52;12.02;;;1.90;82.40;;;;;;6270610;22;20018;-88
2021/01/16 17:00:12;;;;;;;;;;;;;;;;;;;;;
2021/01/16 17:03:32;;;;;;;19.48;12.95;;;1.90;82.90;;;;;;6279876;22;20468;-91
2021/01/16 17:07:12;;;;;;;;;;;;;;;;;;;;;
2021/01/16 17:13:16;;;;;;;;;;;;;;;;;;;;;
2021/01/16 17:16:12;;;;;;;21.17;13.38;;;1.90;83.70;;;;;;6166632;22;20071;-92
2021/01/16 17:22:37;;;;;;;22.55;13.95;;;1.80;84.10;;;;;;6236254;22;20015;-90
2021/01/16 17:25:32;;;;;;;;;;;;;;;;;;;;;
2021/01/16 17:28:23;;;;;;;21.42;13.43;;;1.70;84.30;;;;;;6279594;22;20034;-92
2021/01/16 17:31:41;;;;;;;;;;;;;;;;;;;;;
2021/01/16 17:34:18;;;;;;;;;;;;;;;;;;;;;
2021/01/16 17:37:13;;;;;;;;;;;;;;;;;;;;;
2021/01/16 17:40:02;;;;;;;;;;;;;;;;;;;;;
2021/01/16 17:42:51;;;;;;;21.52;14.15;;;1.70;85.30;;;;;;6279497;22;20095;-90
2021/01/16 17:49:49;;;;;;;22.42;14.00;;;1.70;85.60;;;;;;6211588;22;20050;-88
2021/01/16 17:52:21;;;;;;;22.67;14.18;;;1.70;85.60;;;;;;6274405;22;20000;-87
2021/01/16 17:55:27;;;;;;;22.63;14.35;;;1.70;85.70;;;;;;6249047;22;20019;-87
2021/01/16 17:58:19;;;;;;;20.38;12.40;;;1.70;85.90;;;;;;6276016;22;20069;-89
2021/01/16 18:00:55;;;;;;;20.35;12.95;;;1.70;86.00;;;;;;6275632;22;20012;-87
2021/01/16 18:03:43;;;;;;;21.83;13.15;;;1.70;86.00;;;;;;6249827;22;20011;-86
2021/01/16 18:06:29;;;;;;;23.80;14.50;;;1.70;86.10;;;;;;6275036;22;20003;-88
2021/01/16 18:08:55;;;;;;;22.65;14.88;;;1.70;86.10;;;;;;6274526;22;20011;-89
2021/01/16 18:11:24;;;;;;;21.73;13.48;;;1.70;86.30;;;;;;6274891;22;20488;-89
2021/01/16 18:14:02;;;;;;;22.73;14.15;;;1.70;86.30;;;;;;6274028;22;20022;-87
2021/01/16 18:16:31;;;;;;;22.95;13.38;;;1.70;86.40;;;;;;6275297;22;20050;-88
2021/01/16 18:19:02;;;;;;;20.77;12.88;;;1.70;86.60;;;;;;6274910;22;20010;-88
2021/01/16 18:22:09;;;;;;;21.08;13.70;;;1.70;86.60;;;;;;6261888;22;20016;-89
2021/01/16 18:24:45;;;;;;;22.42;12.93;;;1.60;86.50;;;;;;6273746;22;20038;-86
2021/01/16 18:31:14;;;;;;;;;;;;;;;;;;;;;
2021/01/16 18:41:04;;;;;;;;;;;;;;;;;;;;;
2021/01/16 18:51:17;;;;;;;20.50;13.18;;;1.60;87.20;;;;;;6034865;23;20010;-90
2021/01/16 18:54:05;;;;;;;21.58;13.52;;;1.50;87.30;;;;;;6088721;23;20054;-91
2021/01/16 18:57:03;;;;;;;21.10;13.40;;;1.50;87.30;;;;;;6024539;23;20007;-90
2021/01/16 19:14:29;;;;;;;19.30;12.25;;;1.60;87.90;;;;;;5968668;24;20538;-90
2021/01/16 19:24:23;;;;;;;;;;;;;;;;;;;;;
2021/01/16 19:28:10;;;;;;;19.30;12.88;;;1.50;88.10;;;;;;6098165;23;20381;-92
2021/01/16 19:35:06;;;;;;;21.83;13.15;;;1.50;88.20;;;;;;6097511;23;20060;-89
2021/01/16 19:41:34;;;;;;;18.88;13.15;;;1.50;88.40;;;;;;6057076;23;20021;-91
2021/01/16 19:52:21;;;;;;;;;;;;;;;;;;;;;
2021/01/16 19:56:10;;;;;;;;;;;;;;;;;;;;;
2021/01/16 20:02:44;;;;;;;21.23;14.05;;;1.50;88.70;;;;;;6136603;23;20455;-88
2021/01/16 20:09:25;;;;;;;;;;;;;;;;;;;;;
2021/01/16 20:19:19;;;;;;;;;;;1.50;89.00;;;;;;6214865;22;20162;-88
2021/01/16 20:25:35;;;;;;;22.27;14.75;;;1.60;89.30;;;;;;6163927;23;20326;-86
2021/01/16 20:41:47;;;;;;;20.92;14.15;;;1.50;89.40;;;;;;6140232;22;20017;-90
2021/01/16 20:55:17;;;;;;;22.90;15.05;;;1.50;89.40;;;;;;6131251;23;20018;-88
2021/01/16 21:01:34;;;;;;;;;;;;;;;;;;;;;
2021/01/16 21:05:12;;;;;;;23.83;14.93;;;1.50;89.70;;;;;;6037306;23;20106;-89
2021/01/16 21:11:43;;;;;;;;;;;;;;;;;;;;;
2021/01/16 21:21:19;;;;;;;22.15;14.95;;;1.50;89.90;;;;;;6052657;23;20023;-87
2021/01/16 21:24:13;;;;;;;22.48;14.70;;;1.60;90.00;;;;;;6123701;23;20489;-88
2021/01/16 21:26:56;;;;;;;;;;;;;;;;;;;;;
2021/01/16 21:29:53;;;;;;;25.98;16.48;;;1.60;90.00;;;;;;6102737;23;20085;-86
2021/01/16 21:32:44;;;;;;;25.15;15.88;;;1.60;90.00;;;;;;6260901;22;20325;-88
2021/01/16 21:35:33;;;;;;;26.42;15.93;;;1.60;90.00;;;;;;6236276;22;20014;-89
2021/01/16 21:38:14;;;;;;;;;;;;;;;;;;;;;
2021/01/16 21:41:13;;;;;;;;;;;;;;;;;;;;;
2021/01/16 21:48:08;;;;;;;;;;;;;;;;;;;;;
2021/01/16 21:51:04;;;;;;;25.70;15.75;;;1.60;90.10;;;;;;6255731;22;20039;-87
2021/01/16 21:54:06;;;;;;;;;;;;;;;;;;;;;
2021/01/16 21:57:21;;;;;;;24.90;16.27;;;1.60;90.10;;;;;;6275564;22;20079;-87
2021/01/16 22:00:19;;;;;;;25.30;16.85;;;1.60;90.20;;;;;;6221289;22;20003;-88
2021/01/16 22:03:12;;;;;;;25.20;16.42;;;1.60;90.20;;;;;;6265432;22;20008;-86
2021/01/16 22:06:01;;;;;;;;;;;;;;;;;;;;;
2021/01/16 22:08:56;;;;;;;26.83;17.45;;;1.60;90.20;;;;;;6253847;22;20397;-86
2021/01/16 22:11:35;;;;;;;27.50;16.70;;;1.60;90.20;;;;;;6275195;22;20011;-90
2021/01/16 22:14:51;;;;;;;;;;;;;;;;;;;;;
2021/01/16 22:17:26;;;;;;;26.63;17.33;;;1.60;90.20;;;;;;6276699;22;20119;-90
2021/01/16 22:20:09;;;;;;;;;;;;;;;;;;;;;
2021/01/16 22:22:48;;;;;;;26.52;17.50;;;1.60;90.30;;;;;;6276664;22;20090;-88
2021/01/16 22:25:50;;;;;;;;;;;;;;;;;;;;;
2021/01/16 22:28:22;;;;;;;26.63;18.17;;;1.60;90.30;;;;;;6277069;22;20078;-86
2021/01/16 22:30:50;;;;;;;28.42;18.27;;;1.60;90.30;;;;;;6250776;22;20004;-88
2021/01/16 22:40:00;;;;;;;27.15;17.85;;;1.60;90.30;;;;;;6254430;22;20065;-89
2021/01/16 22:42:41;;;;;;;;;;;;;;;;;;;;;
2021/01/16 22:45:20;;;;;;;;;;;;;;;;;;;;;
2021/01/16 22:48:15;;;;;;;;;;;;;;;;;;;;;
2021/01/16 22:50:47;;;;;;;29.73;19.58;;;1.60;90.40;;;;;;6279121;22;20075;-86
2021/01/16 22:53:46;;;;;;;29.27;18.30;;;1.70;90.40;;;;;;6276834;22;20000;-90
2021/01/16 22:56:26;;;;;;;27.85;18.55;;;1.60;90.40;;;;;;6277839;22;20078;-87
2021/01/16 22:59:06;;;;;;;27.92;18.92;;;1.70;90.40;;;;;;6251164;22;20004;-89
2021/01/16 23:02:05;;;;;;;;;;;;;;;;;;;;;
2021/01/16 23:04:57;;;;;;;;;;;;;;;;;;;;;
2021/01/16 23:07:44;;;;;;;29.90;19.35;;;1.60;90.40;;;;;;6276572;22;20495;-88
2021/01/16 23:10:59;;;;;;;;;;;;;;;;;;;;;
2021/01/16 23:13:42;;;;;;;;;;;1.60;90.40;;;;;;6279104;22;20075;-89
2021/01/16 23:16:51;;;;;;;;;;;;;;;;;;;;;
2021/01/16 23:19:30;;;;;;;31.13;19.20;;;1.60;90.40;;;;;;6271693;22;20103;-88
2021/01/16 23:22:27;;;;;;;29.98;18.95;;;1.60;90.50;;;;;;6277530;22;20094;-87
2021/01/16 23:25:03;;;;;;;;;;;;;;;;;;;;;
2021/01/16 23:27:56;;;;;;;26.90;18.20;;;1.60;90.50;;;;;;6278327;22;20079;-88
2021/01/16 23:30:34;;;;;;;28.52;18.70;;;1.60;90.50;;;;;;6231811;22;20538;-89
2021/01/16 23:33:41;;;;;;;32.40;20.75;;;1.60;90.50;;;;;;6277211;22;20050;-87
2021/01/16 23:37:22;;;;;;;;;;;;;;;;;;;;;
2021/01/16 23:39:57;;;;;;;;;;;;;;;;;;;;;
2021/01/16 23:43:14;;;;;;;29.33;19.10;;;1.60;90.50;;;;;;6256455;22;20103;-87
2021/01/16 23:48:47;;;;;;;29.50;19.02;;;1.60;90.60;;;;;;6256295;22;20008;-89
2021/01/16 23:51:30;;;;;;;30.13;19.75;;;1.60;90.60;;;;;;6226543;22;20003;-87
2021/01/16 23:54:37;;;;;;;27.77;18.63;;;1.60;90.60;;;;;;6276282;22;20089;-88
2021/01/16 23:57:25;;;;;;;28.13;18.58;;;1.60;90.60;;;;;;6277140;22;20011;-89
